createdAt,value
2022-08-30T00:00:45.568Z,6.82
2022-08-30T00:03:16.000Z,6.88
2022-08-30T00:05:46.389Z,7.05
2022-08-30T00:08:15.126Z,7.53
2022-08-30T00:10:43.954Z,7.50
2022-08-30T00:13:13.761Z,7.40
2022-08-30T00:15:43.533Z,8.23
2022-08-30T00:18:12.554Z,8.15
2022-08-30T00:20:40.750Z,7.03
2022-08-30T00:23:10.486Z,7.93
2022-08-30T00:25:38.846Z,7.88
2022-08-30T00:28:10.691Z,8.10
2022-08-30T00:30:39.930Z,8.95
2022-08-30T00:33:08.071Z,8.73
2022-08-30T00:35:36.324Z,8.02
2022-08-30T00:38:07.040Z,9.38
2022-08-30T00:40:37.878Z,9.23
2022-08-30T00:43:08.782Z,8.80
2022-08-30T00:45:44.114Z,10.07
2022-08-30T00:48:12.483Z,9.50
2022-08-30T00:50:43.999Z,10.20
2022-08-30T00:53:16.394Z,9.93
2022-08-30T00:55:46.748Z,10.20
2022-08-30T00:58:21.401Z,11.20
2022-08-30T01:00:50.959Z,11.02
2022-08-30T01:03:19.306Z,10.50
2022-08-30T01:05:50.026Z,11.27
2022-08-30T01:08:18.655Z,11.20
2022-08-30T01:10:48.795Z,10.40
2022-08-30T01:13:17.669Z,9.38
2022-08-30T01:15:46.870Z,10.35
2022-08-30T01:18:17.472Z,10.73
2022-08-30T01:20:53.217Z,10.23
2022-08-30T01:23:24.325Z,11.07
2022-08-30T01:25:54.289Z,11.45
2022-08-30T01:28:25.809Z,10.30
2022-08-30T01:30:54.660Z,11.38
2022-08-30T01:33:24.621Z,12.18
2022-08-30T01:35:56.396Z,11.00
2022-08-30T01:38:34.977Z,10.90
2022-08-30T01:41:11.450Z,12.43
2022-08-30T01:43:40.201Z,10.80
2022-08-30T01:46:11.005Z,10.75
2022-08-30T01:48:42.428Z,11.68
2022-08-30T01:51:19.001Z,11.18
2022-08-30T01:53:48.489Z,11.75
2022-08-30T01:56:20.537Z,12.00
2022-08-30T01:58:48.754Z,12.20
2022-08-30T02:01:19.813Z,12.02
2022-08-30T02:03:49.625Z,11.98
2022-08-30T02:06:20.505Z,12.38
2022-08-30T02:08:51.275Z,13.38
2022-08-30T02:11:19.727Z,13.48
2022-08-30T02:13:48.138Z,13.23
2022-08-30T02:16:19.451Z,13.10
2022-08-30T02:18:47.594Z,14.13
2022-08-30T02:21:16.234Z,13.43
2022-08-30T02:23:45.278Z,13.23
2022-08-30T02:26:15.783Z,13.32
2022-08-30T02:28:50.164Z,13.43
2022-08-30T02:31:20.990Z,12.82
2022-08-30T02:33:51.163Z,14.02
2022-08-30T02:36:20.747Z,12.55
2022-08-30T02:38:49.361Z,12.30
2022-08-30T02:41:19.292Z,12.50
2022-08-30T02:43:48.269Z,12.75
2022-08-30T02:46:16.981Z,12.25
2022-08-30T02:48:48.115Z,12.00
2022-08-30T02:51:16.575Z,13.38
2022-08-30T02:53:46.245Z,13.13
2022-08-30T02:56:16.120Z,13.60
2022-08-30T02:58:48.389Z,14.18
2022-08-30T03:01:18.453Z,12.93
2022-08-30T03:03:47.973Z,13.60
2022-08-30T03:06:17.167Z,12.48
2022-08-30T03:08:45.861Z,12.30
2022-08-30T03:11:14.913Z,13.90
2022-08-30T03:13:43.492Z,12.85
2022-08-30T03:16:13.589Z,13.60
2022-08-30T03:18:43.211Z,13.05
2022-08-30T03:21:13.111Z,14.00
2022-08-30T03:23:42.269Z,12.20
2022-08-30T03:26:12.629Z,13.27
2022-08-30T03:28:40.864Z,13.68
2022-08-30T03:31:09.687Z,13.60
2022-08-30T03:33:40.823Z,13.52
2022-08-30T03:40:54.762Z,13.57
2022-08-30T03:43:23.133Z,12.98
2022-08-30T03:45:52.116Z,13.15
2022-08-30T03:48:20.408Z,14.00
2022-08-30T03:50:50.243Z,12.85
2022-08-30T03:53:18.631Z,13.80
2022-08-30T03:55:47.289Z,13.48
2022-08-30T03:58:17.342Z,13.05
2022-08-30T04:00:47.577Z,13.68
2022-08-30T04:03:16.334Z,13.38
2022-08-30T04:05:45.312Z,13.93
2022-08-30T04:08:15.568Z,12.75
2022-08-30T06:43:49.301Z,14.02
2022-08-30T06:46:19.991Z,13.95
2022-08-30T06:48:48.838Z,14.57
2022-08-30T06:51:20.588Z,14.40
2022-08-30T06:53:50.190Z,14.85
2022-08-30T06:56:19.555Z,14.45
2022-08-30T06:58:49.768Z,14.88
2022-08-30T07:01:22.313Z,14.27
2022-08-30T07:03:51.383Z,13.98
2022-08-30T07:06:20.275Z,13.50
2022-08-30T07:08:54.829Z,14.25
2022-08-30T07:11:30.277Z,13.40
2022-08-30T07:14:00.033Z,12.88
2022-08-30T07:16:29.113Z,13.48
2022-08-30T07:18:58.707Z,13.13
2022-08-30T07:21:29.717Z,12.75
2022-08-30T07:23:59.589Z,13.57
2022-08-30T07:26:31.192Z,13.00
2022-08-30T07:29:02.448Z,13.30
2022-08-30T07:31:30.985Z,13.02
2022-08-30T07:33:59.286Z,12.52
2022-08-30T07:36:27.692Z,13.25
2022-08-30T07:38:56.198Z,13.48
2022-08-30T07:41:26.889Z,12.82
2022-08-30T07:43:56.488Z,12.27
2022-08-30T07:46:28.284Z,12.07
2022-08-30T07:48:56.810Z,12.90
2022-08-30T07:51:26.531Z,12.40
2022-08-30T07:53:55.387Z,12.43
2022-08-30T07:56:24.275Z,11.82
2022-08-30T07:58:52.398Z,11.40
2022-08-30T08:01:22.087Z,12.18
2022-08-30T08:03:52.401Z,12.32
2022-08-30T08:06:22.465Z,11.68
2022-08-30T08:08:50.741Z,11.55
2022-08-30T08:11:21.472Z,11.43
2022-08-30T08:13:53.269Z,11.05
2022-08-30T08:16:23.295Z,10.70
2022-08-30T08:18:53.851Z,10.23
2022-08-30T08:21:22.528Z,11.07
2022-08-30T08:23:51.505Z,10.95
2022-08-30T08:26:19.800Z,9.88
2022-08-30T08:28:48.249Z,9.48
2022-08-30T08:31:17.771Z,10.40
2022-08-30T08:33:46.447Z,10.65
2022-08-30T08:36:16.766Z,9.98
2022-08-30T08:38:45.318Z,9.82
2022-08-30T08:41:27.418Z,9.98
2022-08-30T08:43:55.961Z,9.32
2022-08-30T08:46:32.602Z,8.85
2022-08-30T08:49:05.259Z,9.60
2022-08-30T08:51:58.072Z,8.43
2022-08-30T08:54:33.252Z,8.25
2022-08-30T08:57:01.911Z,8.30
2022-08-30T08:59:30.342Z,8.15
2022-08-30T09:02:03.227Z,7.88
2022-08-30T09:04:36.430Z,7.60
2022-08-30T09:07:11.023Z,7.80
2022-08-30T09:09:42.465Z,7.40
2022-08-30T09:12:13.460Z,7.43
2022-08-30T09:14:46.532Z,7.55
2022-08-30T09:17:16.509Z,7.32
2022-08-30T09:19:46.361Z,7.65
2022-08-30T09:22:32.416Z,6.95
2022-08-30T09:25:04.766Z,7.50
2022-08-30T09:27:36.097Z,7.00
2022-08-30T09:33:00.688Z,7.50
2022-08-30T09:35:43.499Z,7.13
2022-08-30T09:38:18.974Z,6.22
2022-08-30T09:40:50.063Z,6.60
2022-08-30T09:43:25.681Z,6.13
2022-08-30T09:46:09.846Z,6.20
2022-08-30T09:48:41.059Z,5.90
2022-08-30T09:51:37.048Z,6.60
2022-08-30T09:54:18.841Z,6.43
2022-08-30T09:56:57.124Z,6.57
2022-08-30T09:59:39.972Z,6.95
2022-08-30T10:02:21.726Z,5.93
2022-08-30T10:04:58.838Z,6.32
2022-08-30T10:07:33.651Z,5.95
2022-08-30T10:10:10.691Z,5.60
2022-08-30T10:12:44.834Z,6.38
2022-08-30T10:15:20.589Z,6.65
2022-08-30T10:18:04.651Z,6.20
2022-08-30T10:20:37.921Z,5.90
2022-08-30T10:23:13.044Z,5.85
2022-08-30T10:25:46.953Z,5.53
2022-08-30T10:28:21.548Z,5.80
2022-08-30T10:30:56.875Z,5.47
2022-08-30T10:38:57.878Z,4.80
2022-08-30T10:41:36.834Z,5.50
2022-08-30T10:44:10.969Z,4.43
2022-08-30T10:47:02.747Z,5.00
2022-08-30T10:49:36.396Z,4.53
2022-08-30T10:52:23.508Z,4.97
2022-08-30T10:54:59.868Z,4.72
2022-08-30T10:57:30.447Z,4.60
2022-08-30T11:00:06.084Z,4.45
2022-08-30T11:03:13.784Z,4.63
2022-08-30T11:06:04.294Z,4.25
2022-08-30T11:08:49.729Z,4.18
2022-08-30T11:11:26.844Z,4.28
2022-08-30T11:13:59.460Z,4.45
2022-08-30T11:16:39.927Z,4.00
2022-08-30T11:19:18.968Z,3.95
2022-08-30T11:21:50.968Z,4.63
2022-08-30T11:24:22.203Z,3.95
2022-08-30T11:27:08.111Z,3.70
2022-08-30T11:29:42.907Z,4.68
2022-08-30T11:33:02.202Z,4.80
2022-08-30T11:35:48.166Z,3.95
2022-08-30T11:38:42.142Z,4.60
2022-08-30T11:41:12.480Z,3.83
2022-08-30T11:43:56.298Z,4.10
2022-08-30T11:46:40.777Z,3.70
2022-08-30T11:49:50.911Z,4.20
2022-08-30T11:52:32.391Z,4.18
2022-08-30T11:55:42.264Z,3.95
2022-08-30T11:58:24.234Z,3.67
2022-08-30T12:01:40.727Z,3.90
2022-08-30T12:04:15.130Z,4.30
2022-08-30T12:07:04.920Z,4.53
2022-08-30T12:10:06.149Z,4.40
2022-08-30T12:12:53.071Z,4.32
2022-08-30T12:15:44.985Z,3.70
2022-08-30T12:18:29.910Z,3.97
2022-08-30T12:21:33.390Z,3.90
2022-08-30T12:26:50.333Z,4.95
2022-08-30T12:29:20.802Z,4.60
2022-08-30T12:31:52.992Z,5.38
2022-08-30T12:34:25.720Z,5.70
2022-08-30T12:37:03.041Z,4.05
2022-08-30T12:39:36.374Z,4.20
2022-08-30T12:42:19.872Z,4.45
2022-08-30T12:47:21.091Z,4.72
2022-08-30T12:49:51.919Z,5.00
2022-08-30T12:52:24.063Z,3.90
2022-08-30T12:54:54.233Z,4.18
2022-08-30T12:57:41.108Z,4.30
2022-08-30T13:00:11.305Z,4.57
2022-08-30T13:02:48.237Z,4.20
2022-08-30T13:05:48.230Z,3.50
2022-08-30T13:08:22.388Z,4.18
2022-08-30T13:10:57.414Z,4.50
2022-08-30T13:13:37.496Z,4.18
2022-08-30T13:16:23.365Z,3.85
2022-08-30T13:18:53.362Z,4.80
2022-08-30T13:21:26.023Z,4.95
2022-08-30T13:23:59.279Z,4.35
2022-08-30T13:26:31.864Z,4.80
2022-08-30T13:29:03.592Z,4.00
2022-08-30T13:31:33.417Z,4.53
2022-08-30T13:34:02.525Z,3.47
2022-08-30T13:36:33.764Z,4.50
2022-08-30T13:39:03.437Z,4.10
2022-08-30T13:41:34.106Z,4.90
2022-08-30T13:44:13.444Z,4.57
2022-08-30T13:46:53.438Z,4.20
2022-08-30T13:52:22.003Z,4.05
2022-08-30T13:54:51.831Z,4.13
2022-08-30T14:00:18.015Z,4.10
2022-08-30T14:02:54.080Z,3.90
2022-08-30T14:05:48.214Z,4.47
2022-08-30T14:11:02.952Z,3.67
2022-08-30T14:13:31.337Z,3.30
2022-08-30T14:18:51.482Z,3.28
2022-08-30T14:21:21.466Z,3.10
2022-08-30T14:23:53.729Z,3.30
2022-08-30T14:26:25.221Z,3.13
2022-08-30T14:28:55.558Z,2.70
2022-08-30T14:31:25.796Z,3.40
2022-08-30T14:33:54.408Z,2.75
2022-08-30T14:36:23.296Z,3.17
2022-08-30T14:38:52.948Z,3.08
2022-08-30T14:41:21.097Z,3.22
2022-08-30T14:43:51.310Z,3.33
2022-08-30T14:46:19.501Z,3.30
2022-08-30T14:48:50.406Z,2.88
2022-08-30T14:51:21.298Z,3.15
2022-08-30T14:53:52.289Z,2.90
2022-08-30T14:56:22.632Z,2.90
2022-08-30T14:58:52.292Z,3.03
2022-08-30T15:01:22.375Z,3.13
2022-08-30T15:03:52.279Z,2.75
2022-08-30T15:06:21.154Z,3.15
2022-08-30T15:08:50.241Z,3.00
2022-08-30T15:11:20.360Z,3.00
2022-08-30T15:13:49.282Z,3.30
2022-08-30T15:16:23.653Z,3.17
2022-08-30T15:18:54.155Z,3.20
2022-08-30T15:21:27.416Z,3.42
2022-08-30T15:26:24.675Z,3.00
2022-08-30T15:28:53.693Z,3.00
2022-08-30T15:31:23.531Z,3.25
2022-08-30T15:33:53.276Z,3.05
2022-08-30T15:36:21.783Z,3.42
2022-08-30T15:38:50.139Z,2.97
2022-08-30T15:41:18.257Z,3.33
2022-08-30T15:43:46.661Z,3.00
2022-08-30T15:46:22.800Z,2.70
2022-08-30T15:48:55.357Z,3.13
2022-08-30T15:51:23.934Z,3.07
2022-08-30T15:53:53.619Z,2.90
2022-08-30T15:56:21.759Z,2.50
2022-08-30T15:58:52.901Z,3.13
2022-08-30T16:01:30.166Z,2.70
2022-08-30T16:04:00.718Z,2.97
2022-08-30T16:06:30.949Z,3.22
2022-08-30T16:09:00.423Z,2.72
2022-08-30T16:11:29.462Z,2.83
2022-08-30T16:13:59.468Z,2.97
2022-08-30T16:16:28.533Z,3.25
2022-08-30T16:18:56.925Z,3.08
2022-08-30T16:21:29.754Z,2.92
2022-08-30T16:24:01.378Z,2.60
2022-08-30T16:26:31.248Z,2.83
2022-08-30T16:29:00.242Z,3.30
2022-08-30T16:31:30.741Z,2.63
2022-08-30T16:34:02.342Z,4.28
2022-08-30T16:36:37.486Z,2.80
2022-08-30T16:39:08.424Z,2.83
2022-08-30T16:41:36.946Z,3.22
2022-08-30T16:44:07.506Z,2.72
2022-08-30T16:46:37.321Z,2.35
2022-08-30T16:49:08.814Z,2.72
2022-08-30T16:51:39.362Z,2.35
2022-08-30T16:54:09.028Z,2.50
2022-08-30T16:56:38.617Z,2.22
2022-08-30T17:01:56.664Z,2.70
2022-08-30T17:04:27.728Z,2.80
2022-08-30T17:06:57.677Z,3.00
2022-08-30T17:09:27.102Z,2.72
2022-08-30T17:11:55.275Z,2.65
2022-08-30T17:14:29.222Z,2.75
2022-08-30T17:16:58.648Z,2.53
2022-08-30T17:19:29.501Z,2.10
2022-08-30T17:22:00.515Z,2.90
2022-08-30T17:24:29.557Z,2.50
2022-08-30T17:26:58.398Z,2.30
2022-08-30T17:29:27.093Z,2.40
2022-08-30T17:31:55.296Z,2.33
2022-08-30T17:34:24.407Z,2.55
2022-08-30T17:36:55.804Z,2.40
2022-08-30T17:39:25.989Z,2.45
2022-08-30T17:41:54.335Z,2.53
2022-08-30T17:44:25.758Z,2.30
2022-08-30T17:46:55.318Z,2.28
2022-08-30T17:49:24.741Z,2.33
2022-08-30T17:51:56.576Z,2.45
2022-08-30T17:54:31.810Z,2.35
2022-08-30T17:57:00.859Z,2.28
2022-08-30T17:59:32.657Z,2.50
2022-08-30T18:02:03.525Z,2.00
2022-08-30T18:04:34.740Z,2.08
2022-08-30T18:07:03.497Z,2.17
2022-08-30T18:09:35.599Z,2.10
2022-08-30T18:12:06.168Z,2.00
2022-08-30T18:14:39.295Z,2.20
2022-08-30T18:17:08.247Z,2.37
2022-08-30T18:19:46.470Z,2.00
2022-08-30T18:22:15.647Z,2.28
2022-08-30T18:24:45.406Z,1.80
2022-08-30T18:27:13.649Z,2.20
2022-08-30T18:29:42.121Z,2.10
2022-08-30T18:32:11.361Z,2.00
2022-08-30T18:34:44.955Z,1.80
2022-08-30T18:39:48.365Z,2.17
2022-08-30T18:44:49.130Z,2.08
2022-08-30T18:47:17.318Z,2.40
2022-08-30T18:49:51.729Z,1.85
2022-08-30T18:52:19.825Z,2.35
2022-08-30T18:54:53.049Z,2.20
2022-08-30T18:59:50.906Z,1.85
2022-08-30T19:02:19.307Z,2.10
2022-08-30T19:04:49.255Z,2.05
2022-08-30T19:07:19.471Z,2.10
2022-08-30T19:09:49.254Z,2.03
2022-08-30T19:12:19.611Z,2.13
2022-08-30T19:14:49.227Z,2.15
2022-08-30T19:17:17.597Z,2.40
2022-08-30T19:19:48.108Z,2.00
2022-08-30T19:22:18.074Z,2.10
2022-08-30T19:24:49.815Z,2.15
2022-08-30T19:27:19.218Z,2.17
2022-08-30T19:29:53.685Z,2.20
2022-08-30T19:32:22.357Z,2.05
2022-08-30T19:34:50.705Z,2.20
2022-08-30T19:37:19.503Z,2.20
2022-08-30T19:39:49.170Z,2.20
2022-08-30T19:42:17.357Z,2.20
2022-08-30T19:44:45.797Z,2.10
2022-08-30T19:47:14.455Z,2.33
2022-08-30T19:49:42.662Z,2.42
2022-08-30T19:52:11.149Z,2.55
2022-08-30T19:54:43.281Z,2.45
2022-08-30T19:57:12.907Z,2.03
2022-08-30T19:59:42.394Z,2.70
2022-08-30T20:02:13.544Z,2.13
2022-08-30T20:04:42.582Z,1.98
2022-08-30T20:07:10.970Z,1.92
2022-08-30T20:09:39.535Z,2.10
2022-08-30T20:12:08.330Z,2.67
2022-08-30T20:14:37.965Z,1.90
2022-08-30T20:17:06.246Z,2.10
2022-08-30T20:19:40.479Z,2.33
2022-08-30T20:22:09.334Z,2.00
2022-08-30T20:24:23.457Z,2.72
2022-08-30T20:24:39.258Z,1.83
2022-08-30T20:27:12.070Z,1.98
2022-08-30T20:29:42.174Z,1.90
2022-08-30T20:32:10.865Z,2.45
2022-08-30T20:34:39.808Z,1.95
2022-08-30T20:37:09.911Z,1.67
2022-08-30T20:39:39.192Z,2.33
2022-08-30T20:42:08.011Z,2.00
2022-08-30T20:44:36.150Z,1.90
2022-08-30T20:47:06.155Z,2.13
2022-08-30T20:49:35.692Z,1.60
2022-08-30T20:52:04.963Z,1.65
2022-08-30T20:54:33.327Z,2.20
2022-08-30T20:57:02.124Z,2.15
2022-08-30T20:59:30.266Z,2.00
2022-08-30T21:01:59.653Z,1.90
2022-08-30T21:04:31.690Z,1.92
2022-08-30T21:07:00.405Z,1.80
2022-08-30T21:09:28.680Z,1.80
2022-08-30T21:11:56.888Z,1.85
2022-08-30T21:14:25.249Z,2.00
2022-08-30T21:16:54.486Z,2.05
2022-08-30T21:19:22.804Z,1.83
2022-08-30T21:21:52.716Z,1.92
2022-08-30T21:24:20.971Z,1.60
2022-08-30T21:26:49.300Z,1.83
2022-08-30T21:29:17.455Z,1.90
2022-08-30T21:31:45.664Z,1.55
2022-08-30T21:34:17.207Z,1.80
2022-08-30T21:36:45.677Z,1.80
2022-08-30T21:39:18.688Z,1.63
2022-08-30T21:41:47.530Z,1.90
2022-08-30T21:44:17.558Z,1.83
2022-08-30T21:46:47.131Z,1.85
2022-08-30T21:49:17.761Z,1.95
2022-08-30T21:51:48.331Z,2.00
2022-08-30T21:54:18.725Z,1.77
2022-08-30T21:56:48.909Z,2.00
2022-08-30T21:59:18.541Z,1.80
2022-08-30T22:01:47.362Z,1.70
2022-08-30T22:04:16.320Z,2.22
2022-08-30T22:06:48.308Z,1.95
2022-08-30T22:09:20.266Z,1.73
2022-08-30T22:11:49.114Z,1.63
2022-08-30T22:14:19.586Z,1.67
2022-08-30T22:16:48.345Z,1.80
2022-08-30T22:19:21.024Z,1.92
2022-08-30T22:21:52.235Z,1.90
2022-08-30T22:24:32.294Z,1.60
2022-08-30T22:27:02.603Z,1.92
2022-08-30T22:29:31.416Z,1.70
2022-08-30T22:31:59.602Z,2.25
2022-08-30T22:34:28.734Z,1.70
2022-08-30T22:36:57.032Z,1.80
2022-08-30T22:39:27.639Z,2.22
2022-08-30T22:41:57.298Z,2.13
2022-08-30T22:44:25.532Z,2.10
2022-08-30T22:46:53.724Z,2.00
2022-08-30T22:49:21.992Z,1.90
2022-08-30T22:51:50.739Z,2.35
2022-08-30T22:54:18.865Z,1.98
2022-08-30T22:56:47.045Z,1.95
2022-08-30T22:59:16.817Z,2.13
2022-08-30T23:01:47.094Z,2.50
2022-08-30T23:04:15.801Z,2.45
2022-08-30T23:06:49.932Z,2.80
2022-08-30T23:09:18.925Z,2.35
2022-08-30T23:11:47.296Z,3.00
2022-08-30T23:14:19.425Z,2.47
2022-08-30T23:16:48.104Z,2.85
2022-08-30T23:19:16.685Z,2.78
2022-08-30T23:21:45.191Z,2.60
2022-08-30T23:24:30.889Z,2.47
2022-08-30T23:27:16.377Z,2.97
2022-08-30T23:30:04.204Z,3.45
2022-08-30T23:32:50.000Z,3.30
2022-08-30T23:35:35.769Z,3.30
2022-08-30T23:38:23.165Z,2.97
2022-08-30T23:41:09.083Z,3.35
2022-08-30T23:43:55.387Z,3.58
2022-08-30T23:46:42.879Z,3.83
2022-08-30T23:49:28.731Z,3.28
2022-08-30T23:52:14.516Z,3.50
2022-08-30T23:55:00.174Z,3.53
2022-08-30T23:57:46.337Z,3.63
